sensor_id;sensor_type;location;lat;lon;timestamp;temperature;humidity
41547;DHT22;27271;45.412;10.852;2023-04-24T00:02:43;15.90;99.90
41547;DHT22;27271;45.412;10.852;2023-04-24T00:06:09;15.80;99.90
41547;DHT22;27271;45.412;10.852;2023-04-24T00:09:32;15.70;99.90
41547;DHT22;27271;45.412;10.852;2023-04-24T00:12:54;15.70;99.90
41547;DHT22;27271;45.412;10.852;2023-04-24T00:16:16;15.60;99.90
41547;DHT22;27271;45.412;10.852;2023-04-24T00:19:38;15.70;99.90
41547;DHT22;27271;45.412;10.852;2023-04-24T00:23:00;15.70;99.90
41547;DHT22;27271;45.412;10.852;2023-04-24T00:26:22;15.60;99.90
41547;DHT22;27271;45.412;10.852;2023-04-24T00:29:44;15.60;99.90
41547;DHT22;27271;45.412;10.852;2023-04-24T00:33:06;15.60;99.90
41547;DHT22;27271;45.412;10.852;2023-04-24T00:36:29;15.50;99.90
41547;DHT22;27271;45.412;10.852;2023-04-24T00:39:52;15.40;99.90
41547;DHT22;27271;45.412;10.852;2023-04-24T00:43:15;15.30;99.90
41547;DHT22;27271;45.412;10.852;2023-04-24T00:46:37;15.30;99.90
41547;DHT22;27271;45.412;10.852;2023-04-24T00:50:04;15.30;96.30
41547;DHT22;27271;45.412;10.852;2023-04-24T00:53:27;15.40;92.10
41547;DHT22;27271;45.412;10.852;2023-04-24T00:56:49;15.30;41.10
41547;DHT22;27271;45.412;10.852;2023-04-24T01:00:14;15.40;45.80
41547;DHT22;27271;45.412;10.852;2023-04-24T01:03:36;15.40;57.60
41547;DHT22;27271;45.412;10.852;2023-04-24T01:07:00;15.50;58.90
41547;DHT22;27271;45.412;10.852;2023-04-24T01:10:23;15.60;67.30
41547;DHT22;27271;45.412;10.852;2023-04-24T01:13:47;15.50;99.90
41547;DHT22;27271;45.412;10.852;2023-04-24T01:17:09;15.50;91.50
41547;DHT22;27271;45.412;10.852;2023-04-24T01:20:33;15.50;99.90
41547;DHT22;27271;45.412;10.852;2023-04-24T01:23:55;15.50;99.90
41547;DHT22;27271;45.412;10.852;2023-04-24T01:27:19;15.40;99.90
41547;DHT22;27271;45.412;10.852;2023-04-24T01:30:43;15.30;99.90
41547;DHT22;27271;45.412;10.852;2023-04-24T01:34:06;15.30;99.90
41547;DHT22;27271;45.412;10.852;2023-04-24T01:37:30;15.20;1.00
41547;DHT22;27271;45.412;10.852;2023-04-24T01:40:53;14.90;99.90
41547;DHT22;27271;45.412;10.852;2023-04-24T01:44:16;14.70;1.00
41547;DHT22;27271;45.412;10.852;2023-04-24T01:47:40;14.50;99.90
41547;DHT22;27271;45.412;10.852;2023-04-24T01:51:02;14.30;99.90
41547;DHT22;27271;45.412;10.852;2023-04-24T01:54:24;14.10;1.00
41547;DHT22;27271;45.412;10.852;2023-04-24T01:57:47;14.00;1.00
41547;DHT22;27271;45.412;10.852;2023-04-24T02:01:09;13.90;1.00
41547;DHT22;27271;45.412;10.852;2023-04-24T02:04:37;13.90;1.00
41547;DHT22;27271;45.412;10.852;2023-04-24T02:07:59;13.70;99.90
41547;DHT22;27271;45.412;10.852;2023-04-24T02:11:21;13.70;99.90
41547;DHT22;27271;45.412;10.852;2023-04-24T02:14:45;13.50;99.90
41547;DHT22;27271;45.412;10.852;2023-04-24T02:18:07;13.20;99.90
41547;DHT22;27271;45.412;10.852;2023-04-24T02:21:29;13.20;99.90
41547;DHT22;27271;45.412;10.852;2023-04-24T02:24:52;13.20;99.90
41547;DHT22;27271;45.412;10.852;2023-04-24T02:28:14;13.20;99.90
41547;DHT22;27271;45.412;10.852;2023-04-24T02:31:36;13.20;99.90
41547;DHT22;27271;45.412;10.852;2023-04-24T02:34:58;13.10;99.90
41547;DHT22;27271;45.412;10.852;2023-04-24T02:38:21;13.10;99.90
41547;DHT22;27271;45.412;10.852;2023-04-24T02:41:43;13.10;99.90
41547;DHT22;27271;45.412;10.852;2023-04-24T02:45:06;13.10;99.90
41547;DHT22;27271;45.412;10.852;2023-04-24T02:48:28;13.10;99.90
41547;DHT22;27271;45.412;10.852;2023-04-24T02:51:50;13.10;99.90
41547;DHT22;27271;45.412;10.852;2023-04-24T02:55:12;13.10;99.90
41547;DHT22;27271;45.412;10.852;2023-04-24T02:58:34;13.10;99.90
41547;DHT22;27271;45.412;10.852;2023-04-24T03:01:57;13.00;99.90
41547;DHT22;27271;45.412;10.852;2023-04-24T03:05:19;13.10;99.90
41547;DHT22;27271;45.412;10.852;2023-04-24T03:08:41;13.10;99.90
41547;DHT22;27271;45.412;10.852;2023-04-24T03:12:05;13.10;99.90
41547;DHT22;27271;45.412;10.852;2023-04-24T03:15:27;13.10;99.90
41547;DHT22;27271;45.412;10.852;2023-04-24T03:18:49;13.10;99.90
41547;DHT22;27271;45.412;10.852;2023-04-24T03:22:13;13.00;99.90
41547;DHT22;27271;45.412;10.852;2023-04-24T03:25:36;13.20;99.90
41547;DHT22;27271;45.412;10.852;2023-04-24T03:28:58;13.20;99.90
41547;DHT22;27271;45.412;10.852;2023-04-24T03:32:21;13.20;99.90
41547;DHT22;27271;45.412;10.852;2023-04-24T03:35:44;13.20;99.90
41547;DHT22;27271;45.412;10.852;2023-04-24T03:39:07;13.20;99.90
41547;DHT22;27271;45.412;10.852;2023-04-24T03:42:31;13.10;99.90
41547;DHT22;27271;45.412;10.852;2023-04-24T03:45:53;13.20;99.90
41547;DHT22;27271;45.412;10.852;2023-04-24T03:49:16;13.20;99.90
41547;DHT22;27271;45.412;10.852;2023-04-24T03:52:41;13.10;99.90
41547;DHT22;27271;45.412;10.852;2023-04-24T03:56:07;13.10;99.90
41547;DHT22;27271;45.412;10.852;2023-04-24T03:59:30;13.20;99.90
41547;DHT22;27271;45.412;10.852;2023-04-24T04:03:08;13.20;99.90
41547;DHT22;27271;45.412;10.852;2023-04-24T04:06:30;13.30;99.90
41547;DHT22;27271;45.412;10.852;2023-04-24T04:09:55;13.30;99.90
41547;DHT22;27271;45.412;10.852;2023-04-24T04:13:18;13.40;99.90
41547;DHT22;27271;45.412;10.852;2023-04-24T04:16:40;13.30;99.90
41547;DHT22;27271;45.412;10.852;2023-04-24T04:20:03;13.20;99.90
41547;DHT22;27271;45.412;10.852;2023-04-24T04:23:29;13.10;99.90
41547;DHT22;27271;45.412;10.852;2023-04-24T04:27:11;12.90;99.90
41547;DHT22;27271;45.412;10.852;2023-04-24T04:31:00;12.90;99.90
41547;DHT22;27271;45.412;10.852;2023-04-24T04:34:22;13.00;99.90
41547;DHT22;27271;45.412;10.852;2023-04-24T04:37:46;13.00;99.90
41547;DHT22;27271;45.412;10.852;2023-04-24T04:41:14;13.00;99.90
41547;DHT22;27271;45.412;10.852;2023-04-24T04:44:40;13.00;99.90
41547;DHT22;27271;45.412;10.852;2023-04-24T04:48:06;13.00;99.90
41547;DHT22;27271;45.412;10.852;2023-04-24T04:51:31;12.80;99.90
41547;DHT22;27271;45.412;10.852;2023-04-24T04:54:53;12.80;99.90
41547;DHT22;27271;45.412;10.852;2023-04-24T04:58:19;12.80;99.90
41547;DHT22;27271;45.412;10.852;2023-04-24T05:01:46;12.90;99.90
41547;DHT22;27271;45.412;10.852;2023-04-24T05:05:10;12.80;99.90
41547;DHT22;27271;45.412;10.852;2023-04-24T05:08:32;12.80;99.90
41547;DHT22;27271;45.412;10.852;2023-04-24T05:11:54;12.70;99.90
41547;DHT22;27271;45.412;10.852;2023-04-24T05:15:18;12.70;99.90
41547;DHT22;27271;45.412;10.852;2023-04-24T05:18:40;12.80;99.90
41547;DHT22;27271;45.412;10.852;2023-04-24T05:22:05;12.80;99.90
41547;DHT22;27271;45.412;10.852;2023-04-24T05:25:33;12.90;99.90
41547;DHT22;27271;45.412;10.852;2023-04-24T05:29:02;12.90;99.90
41547;DHT22;27271;45.412;10.852;2023-04-24T05:32:25;12.80;99.90
41547;DHT22;27271;45.412;10.852;2023-04-24T05:35:49;12.80;99.90
41547;DHT22;27271;45.412;10.852;2023-04-24T05:39:12;12.80;99.90
41547;DHT22;27271;45.412;10.852;2023-04-24T05:42:34;12.90;99.90
41547;DHT22;27271;45.412;10.852;2023-04-24T05:45:56;13.00;99.90
41547;DHT22;27271;45.412;10.852;2023-04-24T05:49:18;13.10;99.90
41547;DHT22;27271;45.412;10.852;2023-04-24T05:52:41;13.20;99.90
41547;DHT22;27271;45.412;10.852;2023-04-24T05:56:16;13.30;99.90
41547;DHT22;27271;45.412;10.852;2023-04-24T05:59:38;13.30;99.90
41547;DHT22;27271;45.412;10.852;2023-04-24T06:03:01;13.30;99.90
41547;DHT22;27271;45.412;10.852;2023-04-24T06:06:25;13.20;99.90
41547;DHT22;27271;45.412;10.852;2023-04-24T06:09:51;13.10;99.90
41547;DHT22;27271;45.412;10.852;2023-04-24T06:13:14;13.10;99.90
41547;DHT22;27271;45.412;10.852;2023-04-24T06:16:45;13.20;99.90
41547;DHT22;27271;45.412;10.852;2023-04-24T06:20:26;13.30;99.90
41547;DHT22;27271;45.412;10.852;2023-04-24T06:23:49;13.30;99.90
41547;DHT22;27271;45.412;10.852;2023-04-24T06:27:11;13.30;99.90
41547;DHT22;27271;45.412;10.852;2023-04-24T06:30:35;13.30;99.90
41547;DHT22;27271;45.412;10.852;2023-04-24T06:33:57;13.20;99.90
41547;DHT22;27271;45.412;10.852;2023-04-24T06:37:20;13.30;99.90
41547;DHT22;27271;45.412;10.852;2023-04-24T06:40:42;13.40;99.90
41547;DHT22;27271;45.412;10.852;2023-04-24T06:44:07;13.40;99.90
41547;DHT22;27271;45.412;10.852;2023-04-24T06:47:29;13.40;99.90
41547;DHT22;27271;45.412;10.852;2023-04-24T06:50:52;13.30;99.90
41547;DHT22;27271;45.412;10.852;2023-04-24T06:54:14;13.10;99.90
41547;DHT22;27271;45.412;10.852;2023-04-24T06:57:36;13.00;99.90
41547;DHT22;27271;45.412;10.852;2023-04-24T07:00:58;12.90;99.90
41547;DHT22;27271;45.412;10.852;2023-04-24T07:04:20;12.80;99.90
41547;DHT22;27271;45.412;10.852;2023-04-24T07:07:42;12.70;99.90
41547;DHT22;27271;45.412;10.852;2023-04-24T07:11:04;12.70;99.90
41547;DHT22;27271;45.412;10.852;2023-04-24T07:14:27;12.70;99.90
41547;DHT22;27271;45.412;10.852;2023-04-24T07:17:50;12.50;99.90
41547;DHT22;27271;45.412;10.852;2023-04-24T07:21:12;12.50;99.90
41547;DHT22;27271;45.412;10.852;2023-04-24T07:24:34;12.60;99.90
41547;DHT22;27271;45.412;10.852;2023-04-24T07:27:56;12.70;99.90
41547;DHT22;27271;45.412;10.852;2023-04-24T07:31:18;12.90;99.90
41547;DHT22;27271;45.412;10.852;2023-04-24T07:34:40;13.10;99.90
41547;DHT22;27271;45.412;10.852;2023-04-24T07:38:02;13.20;99.90
41547;DHT22;27271;45.412;10.852;2023-04-24T07:41:24;13.30;99.90
41547;DHT22;27271;45.412;10.852;2023-04-24T07:44:47;13.40;99.90
41547;DHT22;27271;45.412;10.852;2023-04-24T07:48:09;13.40;99.90
41547;DHT22;27271;45.412;10.852;2023-04-24T07:51:32;13.50;24.20
41547;DHT22;27271;45.412;10.852;2023-04-24T07:54:59;13.70;71.60
41547;DHT22;27271;45.412;10.852;2023-04-24T07:58:23;14.00;1.00
41547;DHT22;27271;45.412;10.852;2023-04-24T08:01:45;14.50;99.90
41547;DHT22;27271;45.412;10.852;2023-04-24T08:05:07;15.10;91.30
41547;DHT22;27271;45.412;10.852;2023-04-24T08:08:30;15.60;99.90
41547;DHT22;27271;45.412;10.852;2023-04-24T08:11:52;16.00;1.00
41547;DHT22;27271;45.412;10.852;2023-04-24T08:15:15;16.00;79.90
41547;DHT22;27271;45.412;10.852;2023-04-24T08:18:37;16.40;99.90
41547;DHT22;27271;45.412;10.852;2023-04-24T08:21:59;16.50;1.00
41547;DHT22;27271;45.412;10.852;2023-04-24T08:25:21;16.50;99.90
41547;DHT22;27271;45.412;10.852;2023-04-24T08:28:44;16.40;99.90
41547;DHT22;27271;45.412;10.852;2023-04-24T08:32:06;16.50;99.90
41547;DHT22;27271;45.412;10.852;2023-04-24T08:35:29;16.50;99.90
41547;DHT22;27271;45.412;10.852;2023-04-24T08:38:51;16.60;99.90
41547;DHT22;27271;45.412;10.852;2023-04-24T08:42:14;16.60;99.90
41547;DHT22;27271;45.412;10.852;2023-04-24T08:45:36;16.70;99.90
41547;DHT22;27271;45.412;10.852;2023-04-24T08:49:00;16.90;99.90
41547;DHT22;27271;45.412;10.852;2023-04-24T08:52:23;17.20;1.00
41547;DHT22;27271;45.412;10.852;2023-04-24T08:55:47;17.30;99.90
41547;DHT22;27271;45.412;10.852;2023-04-24T08:59:10;17.10;99.90
41547;DHT22;27271;45.412;10.852;2023-04-24T09:02:32;16.90;99.90
41547;DHT22;27271;45.412;10.852;2023-04-24T09:05:57;16.90;99.90
41547;DHT22;27271;45.412;10.852;2023-04-24T09:09:20;16.90;1.00
41547;DHT22;27271;45.412;10.852;2023-04-24T09:12:44;17.00;99.90
41547;DHT22;27271;45.412;10.852;2023-04-24T09:16:06;17.10;99.90
41547;DHT22;27271;45.412;10.852;2023-04-24T09:19:28;17.20;1.00
41547;DHT22;27271;45.412;10.852;2023-04-24T09:22:54;17.60;99.90
41547;DHT22;27271;45.412;10.852;2023-04-24T09:26:21;18.20;99.90
41547;DHT22;27271;45.412;10.852;2023-04-24T09:29:57;18.60;99.90
41547;DHT22;27271;45.412;10.852;2023-04-24T09:33:19;19.20;45.40
41547;DHT22;27271;45.412;10.852;2023-04-24T09:36:42;20.60;1.00
41547;DHT22;27271;45.412;10.852;2023-04-24T09:43:35;23.70;1.00
41547;DHT22;27271;45.412;10.852;2023-04-24T09:46:58;24.40;1.00
41547;DHT22;27271;45.412;10.852;2023-04-24T09:50:21;25.00;1.00
41547;DHT22;27271;45.412;10.852;2023-04-24T09:53:47;25.50;1.00
41547;DHT22;27271;45.412;10.852;2023-04-24T09:57:16;25.60;1.00
41547;DHT22;27271;45.412;10.852;2023-04-24T10:00:38;25.10;1.00
41547;DHT22;27271;45.412;10.852;2023-04-24T10:04:01;24.90;1.00
41547;DHT22;27271;45.412;10.852;2023-04-24T10:07:26;24.70;1.00
41547;DHT22;27271;45.412;10.852;2023-04-24T10:10:48;25.20;1.00
41547;DHT22;27271;45.412;10.852;2023-04-24T10:14:35;25.60;1.00
41547;DHT22;27271;45.412;10.852;2023-04-24T10:17:58;25.50;1.00
41547;DHT22;27271;45.412;10.852;2023-04-24T10:21:21;25.10;1.00
41547;DHT22;27271;45.412;10.852;2023-04-24T10:24:44;25.10;1.00
41547;DHT22;27271;45.412;10.852;2023-04-24T10:28:07;25.10;1.00
41547;DHT22;27271;45.412;10.852;2023-04-24T10:31:32;25.60;1.00
41547;DHT22;27271;45.412;10.852;2023-04-24T10:34:55;25.70;1.00
41547;DHT22;27271;45.412;10.852;2023-04-24T10:38:23;25.80;1.00
41547;DHT22;27271;45.412;10.852;2023-04-24T10:41:48;25.80;1.00
41547;DHT22;27271;45.412;10.852;2023-04-24T10:45:21;25.60;1.00
41547;DHT22;27271;45.412;10.852;2023-04-24T10:48:44;25.30;1.00
41547;DHT22;27271;45.412;10.852;2023-04-24T10:52:14;25.20;1.00
41547;DHT22;27271;45.412;10.852;2023-04-24T10:59:07;24.00;1.00
41547;DHT22;27271;45.412;10.852;2023-04-24T11:02:39;23.80;1.00
41547;DHT22;27271;45.412;10.852;2023-04-24T11:06:07;23.60;1.00
41547;DHT22;27271;45.412;10.852;2023-04-24T11:09:32;23.40;1.00
41547;DHT22;27271;45.412;10.852;2023-04-24T11:13:01;23.90;1.00
41547;DHT22;27271;45.412;10.852;2023-04-24T11:20:01;24.60;1.00
41547;DHT22;27271;45.412;10.852;2023-04-24T11:23:40;24.40;1.00
41547;DHT22;27271;45.412;10.852;2023-04-24T11:30:29;24.50;1.00
41547;DHT22;27271;45.412;10.852;2023-04-24T11:33:54;24.40;1.00
41547;DHT22;27271;45.412;10.852;2023-04-24T11:37:43;24.00;1.00
41547;DHT22;27271;45.412;10.852;2023-04-24T11:41:44;23.70;1.00
41547;DHT22;27271;45.412;10.852;2023-04-24T11:45:22;24.00;1.00
41547;DHT22;27271;45.412;10.852;2023-04-24T11:48:46;24.10;1.00
41547;DHT22;27271;45.412;10.852;2023-04-24T11:52:08;24.20;1.00
41547;DHT22;27271;45.412;10.852;2023-04-24T11:55:32;23.60;1.00
41547;DHT22;27271;45.412;10.852;2023-04-24T11:58:54;23.40;1.00
41547;DHT22;27271;45.412;10.852;2023-04-24T12:02:26;23.70;1.00
41547;DHT22;27271;45.412;10.852;2023-04-24T12:05:49;23.50;1.00
41547;DHT22;27271;45.412;10.852;2023-04-24T12:09:18;23.10;1.00
41547;DHT22;27271;45.412;10.852;2023-04-24T12:12:49;23.00;1.00
41547;DHT22;27271;45.412;10.852;2023-04-24T12:16:15;23.10;1.00
41547;DHT22;27271;45.412;10.852;2023-04-24T12:19:47;23.40;1.00
41547;DHT22;27271;45.412;10.852;2023-04-24T12:23:12;23.10;1.00
41547;DHT22;27271;45.412;10.852;2023-04-24T12:26:34;23.20;1.00
41547;DHT22;27271;45.412;10.852;2023-04-24T12:29:57;23.50;1.00
41547;DHT22;27271;45.412;10.852;2023-04-24T12:33:21;23.70;1.00
41547;DHT22;27271;45.412;10.852;2023-04-24T12:36:55;23.80;1.00
41547;DHT22;27271;45.412;10.852;2023-04-24T12:40:22;23.60;1.00
41547;DHT22;27271;45.412;10.852;2023-04-24T12:43:53;22.90;1.00
41547;DHT22;27271;45.412;10.852;2023-04-24T12:47:15;22.20;1.00
41547;DHT22;27271;45.412;10.852;2023-04-24T12:50:39;21.90;1.00
41547;DHT22;27271;45.412;10.852;2023-04-24T12:54:01;21.80;1.00
41547;DHT22;27271;45.412;10.852;2023-04-24T12:57:24;21.90;1.00
41547;DHT22;27271;45.412;10.852;2023-04-24T13:00:47;22.10;1.00
41547;DHT22;27271;45.412;10.852;2023-04-24T13:04:09;22.10;1.00
41547;DHT22;27271;45.412;10.852;2023-04-24T13:07:33;21.90;1.00
41547;DHT22;27271;45.412;10.852;2023-04-24T13:10:55;22.00;1.00
41547;DHT22;27271;45.412;10.852;2023-04-24T13:14:18;22.60;1.00
41547;DHT22;27271;45.412;10.852;2023-04-24T13:17:40;23.20;1.00
41547;DHT22;27271;45.412;10.852;2023-04-24T13:21:02;23.50;1.00
41547;DHT22;27271;45.412;10.852;2023-04-24T13:24:24;23.70;1.00
41547;DHT22;27271;45.412;10.852;2023-04-24T13:27:46;23.80;1.00
41547;DHT22;27271;45.412;10.852;2023-04-24T13:31:08;23.70;1.00
41547;DHT22;27271;45.412;10.852;2023-04-24T13:34:31;23.40;1.00
41547;DHT22;27271;45.412;10.852;2023-04-24T13:38:00;23.00;1.00
41547;DHT22;27271;45.412;10.852;2023-04-24T13:42:15;23.40;1.00
41547;DHT22;27271;45.412;10.852;2023-04-24T13:45:37;23.30;1.00
41547;DHT22;27271;45.412;10.852;2023-04-24T13:48:59;22.90;1.00
41547;DHT22;27271;45.412;10.852;2023-04-24T13:52:22;22.70;1.00
41547;DHT22;27271;45.412;10.852;2023-04-24T13:55:44;22.70;1.00
41547;DHT22;27271;45.412;10.852;2023-04-24T13:59:06;23.10;1.00
41547;DHT22;27271;45.412;10.852;2023-04-24T14:02:28;22.90;1.00
41547;DHT22;27271;45.412;10.852;2023-04-24T14:05:50;23.00;1.00
41547;DHT22;27271;45.412;10.852;2023-04-24T14:09:13;22.80;1.00
41547;DHT22;27271;45.412;10.852;2023-04-24T14:12:35;22.00;1.00
41547;DHT22;27271;45.412;10.852;2023-04-24T14:15:57;21.90;1.00
41547;DHT22;27271;45.412;10.852;2023-04-24T14:19:23;22.00;1.00
41547;DHT22;27271;45.412;10.852;2023-04-24T14:28:06;22.20;1.00
41547;DHT22;27271;45.412;10.852;2023-04-24T14:31:28;21.90;1.00
41547;DHT22;27271;45.412;10.852;2023-04-24T14:34:51;22.00;1.00
41547;DHT22;27271;45.412;10.852;2023-04-24T14:38:13;22.00;1.00
41547;DHT22;27271;45.412;10.852;2023-04-24T14:41:35;22.10;1.00
41547;DHT22;27271;45.412;10.852;2023-04-24T14:44:58;21.90;1.00
41547;DHT22;27271;45.412;10.852;2023-04-24T14:48:21;21.60;1.00
41547;DHT22;27271;45.412;10.852;2023-04-24T14:51:43;21.70;1.00
41547;DHT22;27271;45.412;10.852;2023-04-24T14:55:05;21.70;1.00
41547;DHT22;27271;45.412;10.852;2023-04-24T14:58:28;21.80;1.00
41547;DHT22;27271;45.412;10.852;2023-04-24T15:01:50;22.00;1.00
41547;DHT22;27271;45.412;10.852;2023-04-24T15:05:34;22.10;1.00
41547;DHT22;27271;45.412;10.852;2023-04-24T15:08:57;21.90;1.00
41547;DHT22;27271;45.412;10.852;2023-04-24T15:12:19;21.80;1.00
41547;DHT22;27271;45.412;10.852;2023-04-24T15:15:41;21.80;1.00
41547;DHT22;27271;45.412;10.852;2023-04-24T15:19:04;21.80;1.00
41547;DHT22;27271;45.412;10.852;2023-04-24T15:22:26;21.90;1.00
41547;DHT22;27271;45.412;10.852;2023-04-24T15:25:48;21.80;1.00
41547;DHT22;27271;45.412;10.852;2023-04-24T15:29:10;21.50;1.00
41547;DHT22;27271;45.412;10.852;2023-04-24T15:32:32;21.20;1.00
41547;DHT22;27271;45.412;10.852;2023-04-24T15:35:54;20.40;1.00
41547;DHT22;27271;45.412;10.852;2023-04-24T15:39:17;19.00;1.00
41547;DHT22;27271;45.412;10.852;2023-04-24T15:42:40;18.00;1.00
41547;DHT22;27271;45.412;10.852;2023-04-24T15:46:03;17.30;1.00
41547;DHT22;27271;45.412;10.852;2023-04-24T15:49:25;17.10;1.00
41547;DHT22;27271;45.412;10.852;2023-04-24T15:52:47;17.00;1.00
41547;DHT22;27271;45.412;10.852;2023-04-24T15:56:09;17.20;1.00
41547;DHT22;27271;45.412;10.852;2023-04-24T15:59:32;17.70;1.00
41547;DHT22;27271;45.412;10.852;2023-04-24T16:02:54;18.10;1.00
41547;DHT22;27271;45.412;10.852;2023-04-24T16:06:16;18.40;1.00
41547;DHT22;27271;45.412;10.852;2023-04-24T16:09:38;18.50;1.00
41547;DHT22;27271;45.412;10.852;2023-04-24T16:13:00;18.60;1.00
41547;DHT22;27271;45.412;10.852;2023-04-24T16:16:24;18.50;1.00
41547;DHT22;27271;45.412;10.852;2023-04-24T16:19:46;18.40;1.00
41547;DHT22;27271;45.412;10.852;2023-04-24T16:23:08;18.60;1.00
41547;DHT22;27271;45.412;10.852;2023-04-24T16:26:30;18.80;1.00
41547;DHT22;27271;45.412;10.852;2023-04-24T16:29:52;19.00;1.00
41547;DHT22;27271;45.412;10.852;2023-04-24T16:33:18;19.20;1.00
41547;DHT22;27271;45.412;10.852;2023-04-24T16:36:42;19.50;1.00
41547;DHT22;27271;45.412;10.852;2023-04-24T16:40:06;19.70;1.00
41547;DHT22;27271;45.412;10.852;2023-04-24T16:43:31;20.00;1.00
41547;DHT22;27271;45.412;10.852;2023-04-24T16:46:53;20.40;1.00
41547;DHT22;27271;45.412;10.852;2023-04-24T16:50:15;20.50;1.00
41547;DHT22;27271;45.412;10.852;2023-04-24T16:53:37;20.30;1.00
41547;DHT22;27271;45.412;10.852;2023-04-24T16:57:00;20.10;1.00
41547;DHT22;27271;45.412;10.852;2023-04-24T17:00:22;19.90;1.00
41547;DHT22;27271;45.412;10.852;2023-04-24T17:03:44;19.70;1.00
41547;DHT22;27271;45.412;10.852;2023-04-24T17:07:07;19.60;1.00
41547;DHT22;27271;45.412;10.852;2023-04-24T17:10:29;19.50;1.00
41547;DHT22;27271;45.412;10.852;2023-04-24T17:13:51;19.50;1.00
41547;DHT22;27271;45.412;10.852;2023-04-24T17:17:13;19.40;1.00
41547;DHT22;27271;45.412;10.852;2023-04-24T17:20:36;19.30;1.00
41547;DHT22;27271;45.412;10.852;2023-04-24T17:23:59;19.10;1.00
41547;DHT22;27271;45.412;10.852;2023-04-24T17:27:23;19.00;1.00
41547;DHT22;27271;45.412;10.852;2023-04-24T17:30:45;18.90;1.00
41547;DHT22;27271;45.412;10.852;2023-04-24T17:34:07;18.70;1.00
41547;DHT22;27271;45.412;10.852;2023-04-24T17:37:32;18.40;99.90
41547;DHT22;27271;45.412;10.852;2023-04-24T17:40:54;18.00;1.00
41547;DHT22;27271;45.412;10.852;2023-04-24T17:44:16;17.50;1.00
41547;DHT22;27271;45.412;10.852;2023-04-24T17:47:38;17.20;1.00
41547;DHT22;27271;45.412;10.852;2023-04-24T17:51:01;17.00;1.00
41547;DHT22;27271;45.412;10.852;2023-04-24T17:54:23;16.80;23.30
41547;DHT22;27271;45.412;10.852;2023-04-24T17:57:45;16.60;99.90
41547;DHT22;27271;45.412;10.852;2023-04-24T18:01:07;16.50;99.90
41547;DHT22;27271;45.412;10.852;2023-04-24T18:04:29;16.40;99.90
41547;DHT22;27271;45.412;10.852;2023-04-24T18:07:51;16.30;99.90
41547;DHT22;27271;45.412;10.852;2023-04-24T18:11:13;16.20;99.90
41547;DHT22;27271;45.412;10.852;2023-04-24T18:14:35;16.20;90.70
41547;DHT22;27271;45.412;10.852;2023-04-24T18:17:57;16.10;99.90
41547;DHT22;27271;45.412;10.852;2023-04-24T18:21:21;15.90;99.90
41547;DHT22;27271;45.412;10.852;2023-04-24T18:24:44;15.90;99.90
41547;DHT22;27271;45.412;10.852;2023-04-24T18:28:06;15.80;1.00
41547;DHT22;27271;45.412;10.852;2023-04-24T18:31:28;15.70;36.00
41547;DHT22;27271;45.412;10.852;2023-04-24T18:34:53;15.60;99.90
41547;DHT22;27271;45.412;10.852;2023-04-24T18:38:15;15.40;1.00
41547;DHT22;27271;45.412;10.852;2023-04-24T18:41:37;15.30;99.90
41547;DHT22;27271;45.412;10.852;2023-04-24T18:45:00;15.30;99.90
41547;DHT22;27271;45.412;10.852;2023-04-24T18:48:23;15.20;99.90
41547;DHT22;27271;45.412;10.852;2023-04-24T18:51:45;15.10;99.90
41547;DHT22;27271;45.412;10.852;2023-04-24T18:55:14;14.90;99.90
41547;DHT22;27271;45.412;10.852;2023-04-24T18:58:36;14.70;99.90
41547;DHT22;27271;45.412;10.852;2023-04-24T19:01:58;14.60;1.00
41547;DHT22;27271;45.412;10.852;2023-04-24T19:05:20;14.50;99.90
41547;DHT22;27271;45.412;10.852;2023-04-24T19:08:42;14.40;1.00
41547;DHT22;27271;45.412;10.852;2023-04-24T19:12:05;14.20;1.00
41547;DHT22;27271;45.412;10.852;2023-04-24T19:15:28;14.10;12.70
41547;DHT22;27271;45.412;10.852;2023-04-24T19:18:54;14.00;1.00
41547;DHT22;27271;45.412;10.852;2023-04-24T19:22:17;13.90;1.00
41547;DHT22;27271;45.412;10.852;2023-04-24T19:25:39;13.80;11.10
41547;DHT22;27271;45.412;10.852;2023-04-24T19:29:02;13.70;99.90
41547;DHT22;27271;45.412;10.852;2023-04-24T19:32:24;13.60;1.00
41547;DHT22;27271;45.412;10.852;2023-04-24T19:35:46;13.70;99.90
41547;DHT22;27271;45.412;10.852;2023-04-24T19:39:08;13.60;99.90
41547;DHT22;27271;45.412;10.852;2023-04-24T19:42:30;13.60;99.90
41547;DHT22;27271;45.412;10.852;2023-04-24T19:46:05;13.60;99.90
41547;DHT22;27271;45.412;10.852;2023-04-24T19:49:27;13.40;99.90
41547;DHT22;27271;45.412;10.852;2023-04-24T19:52:49;13.50;1.00
41547;DHT22;27271;45.412;10.852;2023-04-24T19:56:11;13.50;1.00
41547;DHT22;27271;45.412;10.852;2023-04-24T19:59:33;13.50;99.90
41547;DHT22;27271;45.412;10.852;2023-04-24T20:02:56;13.40;99.90
41547;DHT22;27271;45.412;10.852;2023-04-24T20:06:18;13.50;99.90
41547;DHT22;27271;45.412;10.852;2023-04-24T20:09:41;13.40;99.90
41547;DHT22;27271;45.412;10.852;2023-04-24T20:13:23;13.30;99.90
41547;DHT22;27271;45.412;10.852;2023-04-24T20:17:47;13.10;99.90
41547;DHT22;27271;45.412;10.852;2023-04-24T20:27:05;13.00;99.90
41547;DHT22;27271;45.412;10.852;2023-04-24T20:35:10;12.80;99.90
41547;DHT22;27271;45.412;10.852;2023-04-24T20:38:36;12.60;99.90
41547;DHT22;27271;45.412;10.852;2023-04-24T20:42:04;12.60;99.90
41547;DHT22;27271;45.412;10.852;2023-04-24T20:45:28;12.60;99.90
41547;DHT22;27271;45.412;10.852;2023-04-24T20:49:00;12.50;99.90
41547;DHT22;27271;45.412;10.852;2023-04-24T20:52:30;12.40;1.00
41547;DHT22;27271;45.412;10.852;2023-04-24T20:55:54;12.40;99.90
41547;DHT22;27271;45.412;10.852;2023-04-24T20:59:16;12.30;99.90
41547;DHT22;27271;45.412;10.852;2023-04-24T21:02:40;12.30;99.90
41547;DHT22;27271;45.412;10.852;2023-04-24T21:06:10;12.30;1.00
41547;DHT22;27271;45.412;10.852;2023-04-24T21:09:33;12.20;1.00
41547;DHT22;27271;45.412;10.852;2023-04-24T21:12:58;12.10;1.00
41547;DHT22;27271;45.412;10.852;2023-04-24T21:16:25;12.10;1.00
41547;DHT22;27271;45.412;10.852;2023-04-24T21:20:08;12.00;1.00
41547;DHT22;27271;45.412;10.852;2023-04-24T21:23:39;12.10;1.00
41547;DHT22;27271;45.412;10.852;2023-04-24T21:27:17;12.10;1.00
41547;DHT22;27271;45.412;10.852;2023-04-24T21:30:44;11.90;13.60
41547;DHT22;27271;45.412;10.852;2023-04-24T21:34:13;11.80;73.30
41547;DHT22;27271;45.412;10.852;2023-04-24T21:38:05;11.60;52.80
41547;DHT22;27271;45.412;10.852;2023-04-24T21:41:33;11.50;99.90
41547;DHT22;27271;45.412;10.852;2023-04-24T21:45:31;11.50;99.90
41547;DHT22;27271;45.412;10.852;2023-04-24T21:48:57;11.40;99.90
41547;DHT22;27271;45.412;10.852;2023-04-24T21:52:19;11.30;1.00